sensor_id;sensor_type;location;lat;lon;timestamp;P1;durP1;ratioP1;P2;durP2;ratioP2
23280;SDS011;11809;56.390;-3.266;2022-10-04T00:04:14;2.70;;;0.80;;
23280;SDS011;11809;56.390;-3.266;2022-10-04T00:06:58;1.50;;;0.90;;
23280;SDS011;11809;56.390;-3.266;2022-10-04T00:09:57;2.25;;;0.73;;
23280;SDS011;11809;56.390;-3.266;2022-10-04T00:12:43;3.17;;;0.80;;
23280;SDS011;11809;56.390;-3.266;2022-10-04T00:15:18;3.53;;;0.98;;
23280;SDS011;11809;56.390;-3.266;2022-10-04T00:25:54;4.60;;;0.80;;
23280;SDS011;11809;56.390;-3.266;2022-10-04T00:46:47;2.25;;;0.60;;
23280;SDS011;11809;56.390;-3.266;2022-10-04T00:49:18;2.40;;;1.02;;
23280;SDS011;11809;56.390;-3.266;2022-10-04T00:54:35;2.53;;;0.85;;
23280;SDS011;11809;56.390;-3.266;2022-10-04T00:57:15;1.95;;;0.85;;
23280;SDS011;11809;56.390;-3.266;2022-10-04T00:59:50;2.60;;;0.80;;
23280;SDS011;11809;56.390;-3.266;2022-10-04T01:02:22;3.53;;;1.13;;
23280;SDS011;11809;56.390;-3.266;2022-10-04T01:04:55;2.22;;;0.80;;
23280;SDS011;11809;56.390;-3.266;2022-10-04T01:07:31;1.67;;;0.70;;
23280;SDS011;11809;56.390;-3.266;2022-10-04T01:10:10;2.47;;;0.80;;
23280;SDS011;11809;56.390;-3.266;2022-10-04T01:12:55;2.30;;;0.60;;
23280;SDS011;11809;56.390;-3.266;2022-10-04T01:15:35;1.48;;;0.80;;
23280;SDS011;11809;56.390;-3.266;2022-10-04T01:20:37;3.42;;;0.93;;
23280;SDS011;11809;56.390;-3.266;2022-10-04T01:23:34;1.23;;;0.57;;
23280;SDS011;11809;56.390;-3.266;2022-10-04T01:28:55;1.27;;;0.60;;
23280;SDS011;11809;56.390;-3.266;2022-10-04T01:31:28;2.15;;;0.80;;
23280;SDS011;11809;56.390;-3.266;2022-10-04T01:33:57;1.83;;;0.80;;
23280;SDS011;11809;56.390;-3.266;2022-10-04T01:36:26;2.10;;;0.80;;
23280;SDS011;11809;56.390;-3.266;2022-10-04T01:38:53;3.08;;;0.80;;
23280;SDS011;11809;56.390;-3.266;2022-10-04T01:41:23;2.85;;;0.60;;
23280;SDS011;11809;56.390;-3.266;2022-10-04T01:44:04;1.60;;;0.60;;
23280;SDS011;11809;56.390;-3.266;2022-10-04T01:46:35;1.37;;;0.70;;
23280;SDS011;11809;56.390;-3.266;2022-10-04T01:49:06;1.42;;;0.60;;
23280;SDS011;11809;56.390;-3.266;2022-10-04T01:51:41;1.48;;;0.60;;
23280;SDS011;11809;56.390;-3.266;2022-10-04T01:54:16;1.38;;;0.70;;
23280;SDS011;11809;56.390;-3.266;2022-10-04T01:56:57;1.30;;;0.50;;
23280;SDS011;11809;56.390;-3.266;2022-10-04T01:59:39;1.30;;;0.50;;
23280;SDS011;11809;56.390;-3.266;2022-10-04T02:05:06;1.25;;;0.70;;
23280;SDS011;11809;56.390;-3.266;2022-10-04T02:07:37;0.95;;;0.50;;
23280;SDS011;11809;56.390;-3.266;2022-10-04T02:10:10;1.25;;;0.50;;
23280;SDS011;11809;56.390;-3.266;2022-10-04T02:12:44;2.17;;;0.63;;
23280;SDS011;11809;56.390;-3.266;2022-10-04T02:15:14;1.55;;;0.70;;
23280;SDS011;11809;56.390;-3.266;2022-10-04T02:17:45;0.77;;;0.50;;
23280;SDS011;11809;56.390;-3.266;2022-10-04T02:20:18;0.80;;;0.40;;
23280;SDS011;11809;56.390;-3.266;2022-10-04T02:22:50;0.75;;;0.50;;
23280;SDS011;11809;56.390;-3.266;2022-10-04T02:25:24;1.67;;;0.55;;
23280;SDS011;11809;56.390;-3.266;2022-10-04T02:27:52;1.02;;;0.52;;
23280;SDS011;11809;56.390;-3.266;2022-10-04T02:30:19;1.63;;;0.80;;
23280;SDS011;11809;56.390;-3.266;2022-10-04T02:32:47;1.88;;;0.52;;
23280;SDS011;11809;56.390;-3.266;2022-10-04T02:35:33;1.00;;;0.65;;
23280;SDS011;11809;56.390;-3.266;2022-10-04T02:40:36;0.57;;;0.38;;
23280;SDS011;11809;56.390;-3.266;2022-10-04T02:46:13;1.10;;;0.60;;
23280;SDS011;11809;56.390;-3.266;2022-10-04T02:48:51;1.77;;;0.68;;
23280;SDS011;11809;56.390;-3.266;2022-10-04T02:54:43;1.70;;;0.50;;
23280;SDS011;11809;56.390;-3.266;2022-10-04T02:56:55;1.63;;;0.52;;
23280;SDS011;11809;56.390;-3.266;2022-10-04T02:59:23;2.13;;;0.60;;
23280;SDS011;11809;56.390;-3.266;2022-10-04T03:01:51;2.60;;;0.52;;
23280;SDS011;11809;56.390;-3.266;2022-10-04T03:04:21;1.08;;;0.60;;
23280;SDS011;11809;56.390;-3.266;2022-10-04T03:06:51;2.60;;;0.70;;
23280;SDS011;11809;56.390;-3.266;2022-10-04T03:09:19;0.98;;;0.50;;
23280;SDS011;11809;56.390;-3.266;2022-10-04T03:11:54;1.10;;;0.68;;
23280;SDS011;11809;56.390;-3.266;2022-10-04T03:14:22;1.05;;;0.50;;
23280;SDS011;11809;56.390;-3.266;2022-10-04T03:16:52;1.60;;;0.60;;
23280;SDS011;11809;56.390;-3.266;2022-10-04T03:19:22;1.73;;;0.50;;
23280;SDS011;11809;56.390;-3.266;2022-10-04T03:21:55;1.25;;;0.50;;
23280;SDS011;11809;56.390;-3.266;2022-10-04T03:24:36;1.88;;;0.73;;
23280;SDS011;11809;56.390;-3.266;2022-10-04T03:27:16;1.33;;;0.60;;
23280;SDS011;11809;56.390;-3.266;2022-10-04T03:29:47;1.80;;;0.60;;
23280;SDS011;11809;56.390;-3.266;2022-10-04T03:32:18;1.65;;;0.50;;
23280;SDS011;11809;56.390;-3.266;2022-10-04T03:35:04;2.78;;;0.60;;
23280;SDS011;11809;56.390;-3.266;2022-10-04T03:37:42;2.25;;;0.65;;
23280;SDS011;11809;56.390;-3.266;2022-10-04T03:40:09;2.67;;;0.55;;
23280;SDS011;11809;56.390;-3.266;2022-10-04T03:42:37;2.47;;;0.65;;
23280;SDS011;11809;56.390;-3.266;2022-10-04T03:45:06;2.42;;;0.60;;
23280;SDS011;11809;56.390;-3.266;2022-10-04T03:47:37;2.38;;;0.75;;
23280;SDS011;11809;56.390;-3.266;2022-10-04T03:52:43;1.85;;;0.70;;
23280;SDS011;11809;56.390;-3.266;2022-10-04T03:55:33;1.65;;;0.55;;
23280;SDS011;11809;56.390;-3.266;2022-10-04T03:58:04;1.25;;;0.50;;
23280;SDS011;11809;56.390;-3.266;2022-10-04T04:00:33;1.55;;;0.70;;
23280;SDS011;11809;56.390;-3.266;2022-10-04T04:03:06;1.10;;;0.50;;
23280;SDS011;11809;56.390;-3.266;2022-10-04T04:05:42;2.47;;;0.73;;
23280;SDS011;11809;56.390;-3.266;2022-10-04T04:08:28;1.90;;;0.70;;
23280;SDS011;11809;56.390;-3.266;2022-10-04T04:11:00;1.65;;;0.70;;
23280;SDS011;11809;56.390;-3.266;2022-10-04T04:16:19;1.80;;;0.57;;
23280;SDS011;11809;56.390;-3.266;2022-10-04T04:18:52;2.22;;;0.77;;
23280;SDS011;11809;56.390;-3.266;2022-10-04T04:21:20;1.75;;;0.77;;
23280;SDS011;11809;56.390;-3.266;2022-10-04T04:26:28;1.70;;;0.68;;
23280;SDS011;11809;56.390;-3.266;2022-10-04T04:29:07;2.20;;;0.90;;
23280;SDS011;11809;56.390;-3.266;2022-10-04T04:31:43;3.65;;;0.95;;
23280;SDS011;11809;56.390;-3.266;2022-10-04T04:34:23;2.05;;;0.93;;
23280;SDS011;11809;56.390;-3.266;2022-10-04T04:37:02;2.63;;;1.20;;
23280;SDS011;11809;56.390;-3.266;2022-10-04T04:39:30;1.95;;;0.70;;
23280;SDS011;11809;56.390;-3.266;2022-10-04T04:44:54;2.30;;;0.95;;
23280;SDS011;11809;56.390;-3.266;2022-10-04T04:47:33;1.40;;;0.70;;
23280;SDS011;11809;56.390;-3.266;2022-10-04T04:50:07;1.25;;;0.80;;
23280;SDS011;11809;56.390;-3.266;2022-10-04T04:52:45;2.20;;;0.70;;
23280;SDS011;11809;56.390;-3.266;2022-10-04T04:55:18;1.90;;;0.63;;
23280;SDS011;11809;56.390;-3.266;2022-10-04T04:57:50;1.98;;;0.82;;
23280;SDS011;11809;56.390;-3.266;2022-10-04T05:00:22;2.10;;;0.80;;
23280;SDS011;11809;56.390;-3.266;2022-10-04T05:03:02;5.22;;;0.80;;
23280;SDS011;11809;56.390;-3.266;2022-10-04T05:05:32;4.25;;;0.75;;
23280;SDS011;11809;56.390;-3.266;2022-10-04T05:10:36;3.85;;;0.80;;
23280;SDS011;11809;56.390;-3.266;2022-10-04T05:13:07;3.25;;;0.60;;
23280;SDS011;11809;56.390;-3.266;2022-10-04T05:15:37;6.10;;;1.27;;
23280;SDS011;11809;56.390;-3.266;2022-10-04T05:21:02;4.05;;;0.90;;
23280;SDS011;11809;56.390;-3.266;2022-10-04T05:23:31;5.70;;;1.00;;
23280;SDS011;11809;56.390;-3.266;2022-10-04T05:25:59;1.15;;;0.57;;
23280;SDS011;11809;56.390;-3.266;2022-10-04T05:28:29;1.95;;;0.50;;
23280;SDS011;11809;56.390;-3.266;2022-10-04T05:33:54;0.90;;;0.60;;
23280;SDS011;11809;56.390;-3.266;2022-10-04T05:39:54;1.70;;;0.60;;
23280;SDS011;11809;56.390;-3.266;2022-10-04T05:42:42;2.00;;;0.50;;
23280;SDS011;11809;56.390;-3.266;2022-10-04T05:47:44;1.23;;;0.50;;
23280;SDS011;11809;56.390;-3.266;2022-10-04T06:03:36;1.27;;;0.50;;
23280;SDS011;11809;56.390;-3.266;2022-10-04T06:09:12;1.13;;;0.90;;
23280;SDS011;11809;56.390;-3.266;2022-10-04T06:22:41;3.53;;;1.00;;
23280;SDS011;11809;56.390;-3.266;2022-10-04T06:25:14;2.72;;;1.17;;
23280;SDS011;11809;56.390;-3.266;2022-10-04T06:27:49;7.15;;;0.88;;
23280;SDS011;11809;56.390;-3.266;2022-10-04T06:30:27;2.65;;;1.13;;
23280;SDS011;11809;56.390;-3.266;2022-10-04T07:00:53;2.10;;;1.08;;
23280;SDS011;11809;56.390;-3.266;2022-10-04T07:03:27;2.25;;;1.50;;
23280;SDS011;11809;56.390;-3.266;2022-10-04T07:06:00;3.72;;;1.30;;
23280;SDS011;11809;56.390;-3.266;2022-10-04T07:08:46;2.42;;;1.20;;
23280;SDS011;11809;56.390;-3.266;2022-10-04T07:11:17;4.82;;;1.20;;
23280;SDS011;11809;56.390;-3.266;2022-10-04T07:21:56;2.67;;;1.00;;
23280;SDS011;11809;56.390;-3.266;2022-10-04T07:27:32;2.03;;;1.00;;
23280;SDS011;11809;56.390;-3.266;2022-10-04T07:30:04;4.28;;;1.30;;
23280;SDS011;11809;56.390;-3.266;2022-10-04T07:32:36;1.33;;;0.88;;
23280;SDS011;11809;56.390;-3.266;2022-10-04T07:37:52;1.83;;;0.90;;
23280;SDS011;11809;56.390;-3.266;2022-10-04T07:40:37;1.75;;;0.90;;
23280;SDS011;11809;56.390;-3.266;2022-10-04T07:43:19;1.70;;;0.88;;
23280;SDS011;11809;56.390;-3.266;2022-10-04T07:45:53;3.55;;;1.17;;
23280;SDS011;11809;56.390;-3.266;2022-10-04T07:48:29;4.20;;;1.05;;
23280;SDS011;11809;56.390;-3.266;2022-10-04T07:53:56;2.08;;;1.00;;
23280;SDS011;11809;56.390;-3.266;2022-10-04T07:56:37;13.75;;;0.90;;
23280;SDS011;11809;56.390;-3.266;2022-10-04T08:02:12;2.20;;;0.77;;
23280;SDS011;11809;56.390;-3.266;2022-10-04T08:04:54;1.08;;;0.77;;
23280;SDS011;11809;56.390;-3.266;2022-10-04T08:07:25;1.13;;;0.77;;
23280;SDS011;11809;56.390;-3.266;2022-10-04T08:10:06;0.85;;;0.70;;
23280;SDS011;11809;56.390;-3.266;2022-10-04T08:18:50;1.70;;;0.70;;
23280;SDS011;11809;56.390;-3.266;2022-10-04T08:34:53;2.22;;;0.68;;
23280;SDS011;11809;56.390;-3.266;2022-10-04T08:37:50;0.70;;;0.50;;
23280;SDS011;11809;56.390;-3.266;2022-10-04T08:49:15;0.63;;;0.60;;
23280;SDS011;11809;56.390;-3.266;2022-10-04T09:12:34;2.70;;;0.60;;
23280;SDS011;11809;56.390;-3.266;2022-10-04T09:29:12;1.23;;;0.65;;
23280;SDS011;11809;56.390;-3.266;2022-10-04T09:45:36;0.40;;;0.30;;
23280;SDS011;11809;56.390;-3.266;2022-10-04T09:48:25;0.63;;;0.40;;
23280;SDS011;11809;56.390;-3.266;2022-10-04T10:11:21;4.18;;;0.40;;
23280;SDS011;11809;56.390;-3.266;2022-10-04T10:28:18;1.85;;;0.30;;
23280;SDS011;11809;56.390;-3.266;2022-10-04T10:34:01;4.63;;;0.63;;
23280;SDS011;11809;56.390;-3.266;2022-10-04T10:47:41;1.05;;;0.20;;
23280;SDS011;11809;56.390;-3.266;2022-10-04T10:59:11;0.65;;;0.40;;
23280;SDS011;11809;56.390;-3.266;2022-10-04T11:10:59;3.03;;;0.40;;
23280;SDS011;11809;56.390;-3.266;2022-10-04T11:27:37;1.83;;;0.45;;
23280;SDS011;11809;56.390;-3.266;2022-10-04T11:30:20;0.88;;;0.40;;
23280;SDS011;11809;56.390;-3.266;2022-10-04T11:57:50;6.72;;;6.03;;
23280;SDS011;11809;56.390;-3.266;2022-10-04T12:00:53;7.32;;;6.40;;
23280;SDS011;11809;56.390;-3.266;2022-10-04T12:17:48;6.43;;;5.72;;
23280;SDS011;11809;56.390;-3.266;2022-10-04T12:32:08;6.03;;;4.80;;
23280;SDS011;11809;56.390;-3.266;2022-10-04T12:34:50;6.32;;;5.07;;
23280;SDS011;11809;56.390;-3.266;2022-10-04T12:45:18;3.10;;;2.78;;
23280;SDS011;11809;56.390;-3.266;2022-10-04T12:53:34;7.95;;;3.95;;
23280;SDS011;11809;56.390;-3.266;2022-10-04T13:01:41;17.60;;;3.42;;
23280;SDS011;11809;56.390;-3.266;2022-10-04T13:18:30;2.88;;;2.08;;
23280;SDS011;11809;56.390;-3.266;2022-10-04T13:21:17;5.25;;;2.13;;
23280;SDS011;11809;56.390;-3.266;2022-10-04T13:24:26;3.05;;;1.98;;
23280;SDS011;11809;56.390;-3.266;2022-10-04T13:27:31;4.65;;;1.90;;
23280;SDS011;11809;56.390;-3.266;2022-10-04T13:30:03;1.90;;;1.77;;
23280;SDS011;11809;56.390;-3.266;2022-10-04T13:32:41;3.58;;;1.52;;
23280;SDS011;11809;56.390;-3.266;2022-10-04T13:38:28;2.42;;;1.52;;
23280;SDS011;11809;56.390;-3.266;2022-10-04T13:47:24;1.75;;;1.00;;
23280;SDS011;11809;56.390;-3.266;2022-10-04T13:50:11;2.75;;;1.20;;
23280;SDS011;11809;56.390;-3.266;2022-10-04T14:02:03;1.77;;;1.33;;
23280;SDS011;11809;56.390;-3.266;2022-10-04T14:04:57;1.23;;;1.00;;
23280;SDS011;11809;56.390;-3.266;2022-10-04T14:19:49;1.70;;;0.90;;
23280;SDS011;11809;56.390;-3.266;2022-10-04T14:33:51;2.13;;;0.90;;
23280;SDS011;11809;56.390;-3.266;2022-10-04T14:48:21;6.10;;;1.30;;
23280;SDS011;11809;56.390;-3.266;2022-10-04T14:59:59;1.27;;;0.80;;
23280;SDS011;11809;56.390;-3.266;2022-10-04T15:07:46;2.10;;;0.60;;
23280;SDS011;11809;56.390;-3.266;2022-10-04T15:10:18;0.90;;;0.70;;
23280;SDS011;11809;56.390;-3.266;2022-10-04T15:13:01;2.78;;;0.90;;
23280;SDS011;11809;56.390;-3.266;2022-10-04T15:23:50;1.38;;;0.50;;
23280;SDS011;11809;56.390;-3.266;2022-10-04T15:29:01;2.20;;;0.60;;
23280;SDS011;11809;56.390;-3.266;2022-10-04T15:34:36;2.22;;;0.57;;
23280;SDS011;11809;56.390;-3.266;2022-10-04T15:42:28;11.93;;;1.65;;
23280;SDS011;11809;56.390;-3.266;2022-10-04T15:55:58;2.95;;;0.57;;
23280;SDS011;11809;56.390;-3.266;2022-10-04T15:58:51;2.05;;;0.50;;
23280;SDS011;11809;56.390;-3.266;2022-10-04T16:09:35;6.80;;;0.68;;
23280;SDS011;11809;56.390;-3.266;2022-10-04T16:22:31;1.57;;;0.60;;
23280;SDS011;11809;56.390;-3.266;2022-10-04T16:27:57;3.05;;;0.55;;
23280;SDS011;11809;56.390;-3.266;2022-10-04T16:33:21;2.88;;;0.50;;
23280;SDS011;11809;56.390;-3.266;2022-10-04T16:36:07;2.03;;;0.80;;
23280;SDS011;11809;56.390;-3.266;2022-10-04T16:38:43;3.55;;;0.65;;
23280;SDS011;11809;56.390;-3.266;2022-10-04T16:44:26;1.58;;;0.52;;
23280;SDS011;11809;56.390;-3.266;2022-10-04T16:47:01;4.10;;;0.95;;
23280;SDS011;11809;56.390;-3.266;2022-10-04T16:49:51;4.25;;;0.93;;
23280;SDS011;11809;56.390;-3.266;2022-10-04T16:55:15;6.15;;;1.27;;
23280;SDS011;11809;56.390;-3.266;2022-10-04T17:06:28;2.85;;;1.02;;
23280;SDS011;11809;56.390;-3.266;2022-10-04T17:17:22;5.30;;;1.23;;
23280;SDS011;11809;56.390;-3.266;2022-10-04T17:23:27;6.07;;;1.10;;
23280;SDS011;11809;56.390;-3.266;2022-10-04T17:26:21;4.43;;;1.13;;
23280;SDS011;11809;56.390;-3.266;2022-10-04T17:29:16;3.15;;;0.85;;
23280;SDS011;11809;56.390;-3.266;2022-10-04T17:32:08;4.38;;;1.10;;
23280;SDS011;11809;56.390;-3.266;2022-10-04T17:35:03;8.48;;;1.90;;
23280;SDS011;11809;56.390;-3.266;2022-10-04T17:48:57;5.20;;;2.85;;
23280;SDS011;11809;56.390;-3.266;2022-10-04T17:51:56;3.55;;;1.73;;
23280;SDS011;11809;56.390;-3.266;2022-10-04T17:54:52;5.28;;;1.80;;
23280;SDS011;11809;56.390;-3.266;2022-10-04T17:57:58;7.65;;;1.83;;
23280;SDS011;11809;56.390;-3.266;2022-10-04T18:03:44;5.93;;;2.58;;
23280;SDS011;11809;56.390;-3.266;2022-10-04T18:11:51;4.53;;;1.00;;
23280;SDS011;11809;56.390;-3.266;2022-10-04T18:17:06;1.77;;;1.10;;
23280;SDS011;11809;56.390;-3.266;2022-10-04T18:24:35;4.50;;;1.02;;
23280;SDS011;11809;56.390;-3.266;2022-10-04T18:27:12;6.60;;;1.65;;
23280;SDS011;11809;56.390;-3.266;2022-10-04T18:29:42;5.25;;;1.55;;
23280;SDS011;11809;56.390;-3.266;2022-10-04T18:32:33;10.25;;;1.40;;
23280;SDS011;11809;56.390;-3.266;2022-10-04T18:35:19;5.43;;;1.50;;
23280;SDS011;11809;56.390;-3.266;2022-10-04T18:40:34;7.18;;;1.60;;
23280;SDS011;11809;56.390;-3.266;2022-10-04T18:57:35;7.00;;;2.17;;
23280;SDS011;11809;56.390;-3.266;2022-10-04T19:00:24;5.57;;;2.15;;
23280;SDS011;11809;56.390;-3.266;2022-10-04T19:03:36;9.27;;;2.60;;
23280;SDS011;11809;56.390;-3.266;2022-10-04T19:06:32;9.30;;;2.20;;
23280;SDS011;11809;56.390;-3.266;2022-10-04T19:09:07;5.70;;;1.98;;
23280;SDS011;11809;56.390;-3.266;2022-10-04T19:14:33;6.57;;;2.10;;
23280;SDS011;11809;56.390;-3.266;2022-10-04T19:17:20;6.15;;;2.38;;
23280;SDS011;11809;56.390;-3.266;2022-10-04T19:20:08;2.72;;;1.65;;
23280;SDS011;11809;56.390;-3.266;2022-10-04T19:29:11;6.78;;;1.70;;
23280;SDS011;11809;56.390;-3.266;2022-10-04T19:32:03;3.75;;;1.33;;
23280;SDS011;11809;56.390;-3.266;2022-10-04T19:34:48;9.27;;;1.42;;
23280;SDS011;11809;56.390;-3.266;2022-10-04T19:37:24;3.45;;;1.50;;
23280;SDS011;11809;56.390;-3.266;2022-10-04T19:40:08;4.88;;;1.20;;
23280;SDS011;11809;56.390;-3.266;2022-10-04T19:42:59;5.78;;;1.58;;
23280;SDS011;11809;56.390;-3.266;2022-10-04T19:48:30;2.05;;;1.13;;
23280;SDS011;11809;56.390;-3.266;2022-10-04T19:51:08;3.72;;;1.30;;
23280;SDS011;11809;56.390;-3.266;2022-10-04T19:53:46;3.10;;;1.25;;
23280;SDS011;11809;56.390;-3.266;2022-10-04T20:01:23;6.60;;;1.30;;
23280;SDS011;11809;56.390;-3.266;2022-10-04T20:03:51;2.88;;;1.23;;
23280;SDS011;11809;56.390;-3.266;2022-10-04T20:06:46;1.67;;;0.90;;
23280;SDS011;11809;56.390;-3.266;2022-10-04T20:09:25;2.75;;;0.90;;
23280;SDS011;11809;56.390;-3.266;2022-10-04T20:12:01;5.07;;;1.48;;
23280;SDS011;11809;56.390;-3.266;2022-10-04T20:19:39;5.00;;;1.23;;
23280;SDS011;11809;56.390;-3.266;2022-10-04T20:35:12;2.33;;;1.20;;
23280;SDS011;11809;56.390;-3.266;2022-10-04T20:38:17;4.35;;;1.33;;
23280;SDS011;11809;56.390;-3.266;2022-10-04T20:40:59;6.32;;;1.27;;
23280;SDS011;11809;56.390;-3.266;2022-10-04T20:43:27;2.55;;;1.20;;
23280;SDS011;11809;56.390;-3.266;2022-10-04T20:45:55;8.32;;;1.35;;
23280;SDS011;11809;56.390;-3.266;2022-10-04T20:48:28;8.27;;;1.17;;
23280;SDS011;11809;56.390;-3.266;2022-10-04T20:51:05;2.80;;;1.23;;
23280;SDS011;11809;56.390;-3.266;2022-10-04T20:53:35;4.18;;;1.30;;
23280;SDS011;11809;56.390;-3.266;2022-10-04T20:58:55;7.97;;;1.38;;
23280;SDS011;11809;56.390;-3.266;2022-10-04T21:01:30;2.40;;;1.08;;
23280;SDS011;11809;56.390;-3.266;2022-10-04T21:04:12;3.30;;;1.08;;
23280;SDS011;11809;56.390;-3.266;2022-10-04T21:06:49;3.17;;;0.88;;
23280;SDS011;11809;56.390;-3.266;2022-10-04T21:09:23;3.97;;;1.17;;
23280;SDS011;11809;56.390;-3.266;2022-10-04T21:14:26;2.53;;;1.25;;
23280;SDS011;11809;56.390;-3.266;2022-10-04T21:17:00;3.10;;;1.20;;
23280;SDS011;11809;56.390;-3.266;2022-10-04T21:22:09;3.22;;;0.85;;
23280;SDS011;11809;56.390;-3.266;2022-10-04T21:25:26;3.55;;;1.20;;
23280;SDS011;11809;56.390;-3.266;2022-10-04T21:27:51;1.58;;;1.00;;
23280;SDS011;11809;56.390;-3.266;2022-10-04T21:30:19;1.40;;;0.90;;
23280;SDS011;11809;56.390;-3.266;2022-10-04T21:32:46;2.90;;;0.85;;
23280;SDS011;11809;56.390;-3.266;2022-10-04T21:35:13;3.53;;;1.00;;
23280;SDS011;11809;56.390;-3.266;2022-10-04T21:37:51;2.17;;;1.05;;
23280;SDS011;11809;56.390;-3.266;2022-10-04T21:40:18;3.17;;;1.20;;
23280;SDS011;11809;56.390;-3.266;2022-10-04T21:42:45;2.60;;;0.88;;
23280;SDS011;11809;56.390;-3.266;2022-10-04T21:45:12;2.30;;;0.90;;
23280;SDS011;11809;56.390;-3.266;2022-10-04T21:47:40;3.55;;;0.90;;
23280;SDS011;11809;56.390;-3.266;2022-10-04T21:50:08;2.08;;;0.95;;
23280;SDS011;11809;56.390;-3.266;2022-10-04T21:52:35;2.38;;;1.10;;
23280;SDS011;11809;56.390;-3.266;2022-10-04T21:55:02;2.38;;;1.10;;
23280;SDS011;11809;56.390;-3.266;2022-10-04T21:57:35;2.22;;;1.00;;
23280;SDS011;11809;56.390;-3.266;2022-10-04T22:00:03;3.08;;;1.17;;
23280;SDS011;11809;56.390;-3.266;2022-10-04T22:02:31;2.70;;;1.00;;
23280;SDS011;11809;56.390;-3.266;2022-10-04T22:04:58;2.70;;;1.00;;
23280;SDS011;11809;56.390;-3.266;2022-10-04T22:07:25;1.70;;;0.82;;
23280;SDS011;11809;56.390;-3.266;2022-10-04T22:09:53;2.15;;;1.05;;
23280;SDS011;11809;56.390;-3.266;2022-10-04T22:12:20;3.70;;;1.10;;
23280;SDS011;11809;56.390;-3.266;2022-10-04T22:14:47;2.78;;;1.20;;
23280;SDS011;11809;56.390;-3.266;2022-10-04T22:17:14;3.35;;;1.10;;
23280;SDS011;11809;56.390;-3.266;2022-10-04T22:19:41;2.05;;;1.20;;
23280;SDS011;11809;56.390;-3.266;2022-10-04T22:22:13;2.30;;;1.00;;
23280;SDS011;11809;56.390;-3.266;2022-10-04T22:24:41;3.38;;;0.90;;
23280;SDS011;11809;56.390;-3.266;2022-10-04T22:27:10;1.13;;;0.70;;
23280;SDS011;11809;56.390;-3.266;2022-10-04T22:29:40;2.55;;;1.10;;
23280;SDS011;11809;56.390;-3.266;2022-10-04T22:32:19;3.83;;;1.00;;
23280;SDS011;11809;56.390;-3.266;2022-10-04T22:34:50;1.25;;;0.82;;
23280;SDS011;11809;56.390;-3.266;2022-10-04T22:37:19;2.65;;;0.93;;
23280;SDS011;11809;56.390;-3.266;2022-10-04T22:39:50;1.80;;;0.90;;
23280;SDS011;11809;56.390;-3.266;2022-10-04T22:42:18;1.83;;;0.82;;
23280;SDS011;11809;56.390;-3.266;2022-10-04T22:44:47;1.75;;;0.88;;
23280;SDS011;11809;56.390;-3.266;2022-10-04T22:47:14;1.40;;;0.90;;
23280;SDS011;11809;56.390;-3.266;2022-10-04T22:49:42;2.75;;;1.05;;
23280;SDS011;11809;56.390;-3.266;2022-10-04T22:54:47;1.85;;;0.90;;
23280;SDS011;11809;56.390;-3.266;2022-10-04T22:57:16;2.03;;;0.95;;
23280;SDS011;11809;56.390;-3.266;2022-10-04T22:59:48;2.00;;;0.98;;
23280;SDS011;11809;56.390;-3.266;2022-10-04T23:02:23;1.30;;;0.90;;
23280;SDS011;11809;56.390;-3.266;2022-10-04T23:04:55;1.50;;;0.90;;
23280;SDS011;11809;56.390;-3.266;2022-10-04T23:07:26;1.63;;;0.82;;
23280;SDS011;11809;56.390;-3.266;2022-10-04T23:09:53;1.60;;;0.95;;
23280;SDS011;11809;56.390;-3.266;2022-10-04T23:12:20;2.17;;;0.93;;
23280;SDS011;11809;56.390;-3.266;2022-10-04T23:14:47;2.47;;;1.13;;
23280;SDS011;11809;56.390;-3.266;2022-10-04T23:17:16;3.60;;;1.17;;
23280;SDS011;11809;56.390;-3.266;2022-10-04T23:19:51;2.08;;;1.17;;
23280;SDS011;11809;56.390;-3.266;2022-10-04T23:22:25;2.70;;;0.95;;
23280;SDS011;11809;56.390;-3.266;2022-10-04T23:24:53;1.63;;;0.93;;
23280;SDS011;11809;56.390;-3.266;2022-10-04T23:27:21;1.25;;;0.90;;
23280;SDS011;11809;56.390;-3.266;2022-10-04T23:29:50;3.30;;;1.00;;
23280;SDS011;11809;56.390;-3.266;2022-10-04T23:32:26;3.40;;;0.90;;
23280;SDS011;11809;56.390;-3.266;2022-10-04T23:34:53;6.57;;;1.08;;
23280;SDS011;11809;56.390;-3.266;2022-10-04T23:37:23;2.25;;;0.98;;
23280;SDS011;11809;56.390;-3.266;2022-10-04T23:39:52;1.63;;;1.00;;
23280;SDS011;11809;56.390;-3.266;2022-10-04T23:42:20;1.40;;;0.90;;
23280;SDS011;11809;56.390;-3.266;2022-10-04T23:44:58;1.73;;;1.05;;
23280;SDS011;11809;56.390;-3.266;2022-10-04T23:47:33;2.13;;;0.90;;
23280;SDS011;11809;56.390;-3.266;2022-10-04T23:50:03;1.70;;;1.00;;
23280;SDS011;11809;56.390;-3.266;2022-10-04T23:52:41;2.33;;;1.10;;
23280;SDS011;11809;56.390;-3.266;2022-10-04T23:55:21;1.58;;;0.93;;
